sensor_id;sensor_type;location;lat;lon;timestamp;pressure;altitude;pressure_sealevel;temperature;humidity
79376;BME280;68846;53.150;18.136;2023-05-10T00:00:28;101518.52;;;10.27;44.26
79376;BME280;68846;53.150;18.136;2023-05-10T00:03:08;101516.75;;;10.26;44.26
79376;BME280;68846;53.150;18.136;2023-05-10T00:05:34;101500.75;;;10.13;44.59
79376;BME280;68846;53.150;18.136;2023-05-10T00:08:00;101514.77;;;10.25;44.48
79376;BME280;68846;53.150;18.136;2023-05-10T00:10:26;101515.56;;;10.22;44.45
79376;BME280;68846;53.150;18.136;2023-05-10T00:12:53;101515.34;;;10.21;44.53
79376;BME280;68846;53.150;18.136;2023-05-10T00:15:19;101514.56;;;10.18;44.56
79376;BME280;68846;53.150;18.136;2023-05-10T00:17:45;101514.70;;;10.17;44.93
79376;BME280;68846;53.150;18.136;2023-05-10T00:20:11;101512.73;;;10.15;44.93
79376;BME280;68846;53.150;18.136;2023-05-10T00:22:37;101510.06;;;10.14;45.03
79376;BME280;68846;53.150;18.136;2023-05-10T00:25:05;101506.15;;;10.13;45.13
79376;BME280;68846;53.150;18.136;2023-05-10T00:27:32;101504.17;;;10.11;45.12
79376;BME280;68846;53.150;18.136;2023-05-10T00:29:58;101501.50;;;10.09;44.97
79376;BME280;68846;53.150;18.136;2023-05-10T00:32:24;101498.64;;;10.08;45.61
79376;BME280;68846;53.150;18.136;2023-05-10T00:34:50;101500.15;;;10.06;45.26
79376;BME280;68846;53.150;18.136;2023-05-10T00:37:16;101486.05;;;9.97;45.25
79376;BME280;68846;53.150;18.136;2023-05-10T00:39:43;101485.30;;;9.96;45.41
79376;BME280;68846;53.150;18.136;2023-05-10T00:42:09;101495.27;;;10.01;45.33
79376;BME280;68846;53.150;18.136;2023-05-10T00:44:35;101494.00;;;9.99;45.46
79376;BME280;68846;53.150;18.136;2023-05-10T00:47:01;101491.66;;;9.97;45.63
79376;BME280;68846;53.150;18.136;2023-05-10T00:49:28;101487.77;;;9.96;45.76
79376;BME280;68846;53.150;18.136;2023-05-10T00:51:54;101491.77;;;9.95;45.79
79376;BME280;68846;53.150;18.136;2023-05-10T00:54:20;101486.22;;;9.90;45.80
79376;BME280;68846;53.150;18.136;2023-05-10T00:56:47;101486.32;;;9.88;45.67
79376;BME280;68846;53.150;18.136;2023-05-10T00:59:16;101486.45;;;9.86;45.69
79376;BME280;68846;53.150;18.136;2023-05-10T01:01:44;101477.40;;;9.83;45.82
79376;BME280;68846;53.150;18.136;2023-05-10T01:04:10;101473.96;;;9.80;45.85
79376;BME280;68846;53.150;18.136;2023-05-10T01:06:39;101469.39;;;9.73;45.97
79376;BME280;68846;53.150;18.136;2023-05-10T01:09:06;101469.79;;;9.68;45.85
79376;BME280;68846;53.150;18.136;2023-05-10T01:11:36;101468.86;;;9.66;46.18
79376;BME280;68846;53.150;18.136;2023-05-10T01:14:04;101472.45;;;9.63;46.19
79376;BME280;68846;53.150;18.136;2023-05-10T01:16:37;101462.00;;;9.53;46.24
79376;BME280;68846;53.150;18.136;2023-05-10T01:19:14;101450.19;;;9.45;46.23
79376;BME280;68846;53.150;18.136;2023-05-10T01:21:47;101470.45;;;9.54;46.56
79376;BME280;68846;53.150;18.136;2023-05-10T01:27:20;101465.34;;;9.47;46.50
79376;BME280;68846;53.150;18.136;2023-05-10T01:35:40;101455.29;;;9.40;46.92
79376;BME280;68846;53.150;18.136;2023-05-10T01:41:15;101451.92;;;9.32;47.25
79376;BME280;68846;53.150;18.136;2023-05-10T01:43:50;101443.41;;;9.24;47.11
79376;BME280;68846;53.150;18.136;2023-05-10T01:46:26;101448.44;;;9.27;47.07
79376;BME280;68846;53.150;18.136;2023-05-10T01:48:55;101439.25;;;9.20;47.41
79376;BME280;68846;53.150;18.136;2023-05-10T01:51:26;101447.61;;;9.23;47.37
79376;BME280;68846;53.150;18.136;2023-05-10T01:53:59;101445.42;;;9.20;47.56
79376;BME280;68846;53.150;18.136;2023-05-10T01:56:28;101440.20;;;9.16;47.50
79376;BME280;68846;53.150;18.136;2023-05-10T01:58:56;101442.27;;;9.14;47.63
79376;BME280;68846;53.150;18.136;2023-05-10T02:01:25;101439.20;;;9.12;47.55
79376;BME280;68846;53.150;18.136;2023-05-10T02:03:53;101439.30;;;9.08;47.92
79376;BME280;68846;53.150;18.136;2023-05-10T02:06:20;101439.59;;;9.07;47.83
79376;BME280;68846;53.150;18.136;2023-05-10T02:08:49;101438.63;;;9.04;47.50
79376;BME280;68846;53.150;18.136;2023-05-10T02:11:17;101433.85;;;9.03;48.06
79376;BME280;68846;53.150;18.136;2023-05-10T02:13:44;101431.33;;;9.00;47.81
79376;BME280;68846;53.150;18.136;2023-05-10T02:16:14;101430.36;;;8.98;48.00
79376;BME280;68846;53.150;18.136;2023-05-10T02:18:42;101435.09;;;8.97;48.15
79376;BME280;68846;53.150;18.136;2023-05-10T02:21:09;101421.22;;;8.91;48.30
79376;BME280;68846;53.150;18.136;2023-05-10T02:23:38;101427.32;;;8.96;48.17
79376;BME280;68846;53.150;18.136;2023-05-10T02:26:05;101425.16;;;8.94;48.16
79376;BME280;68846;53.150;18.136;2023-05-10T02:28:32;101423.33;;;8.92;48.35
79376;BME280;68846;53.150;18.136;2023-05-10T02:31:00;101424.66;;;8.89;48.50
79376;BME280;68846;53.150;18.136;2023-05-10T02:33:28;101421.92;;;8.85;48.14
79376;BME280;68846;53.150;18.136;2023-05-10T02:35:55;101424.01;;;8.84;48.56
79376;BME280;68846;53.150;18.136;2023-05-10T02:38:22;101419.73;;;8.82;48.33
79376;BME280;68846;53.150;18.136;2023-05-10T02:40:50;101421.64;;;8.82;48.53
79376;BME280;68846;53.150;18.136;2023-05-10T02:43:17;101421.06;;;8.80;48.60
79376;BME280;68846;53.150;18.136;2023-05-10T02:45:46;101422.57;;;8.77;48.61
79376;BME280;68846;53.150;18.136;2023-05-10T02:48:13;101423.19;;;8.75;48.68
79376;BME280;68846;53.150;18.136;2023-05-10T02:50:43;101422.45;;;8.74;48.71
79376;BME280;68846;53.150;18.136;2023-05-10T02:53:15;101422.63;;;8.73;48.48
79376;BME280;68846;53.150;18.136;2023-05-10T02:55:49;101416.30;;;8.68;48.66
79376;BME280;68846;53.150;18.136;2023-05-10T02:58:16;101426.80;;;8.72;48.92
79376;BME280;68846;53.150;18.136;2023-05-10T03:00:45;101423.77;;;8.71;48.52
79376;BME280;68846;53.150;18.136;2023-05-10T03:03:37;101420.86;;;8.68;48.75
79376;BME280;68846;53.150;18.136;2023-05-10T03:06:04;101424.48;;;8.65;48.86
79376;BME280;68846;53.150;18.136;2023-05-10T03:08:31;101421.04;;;8.62;49.06
79376;BME280;68846;53.150;18.136;2023-05-10T03:14:02;101424.77;;;8.58;49.17
79376;BME280;68846;53.150;18.136;2023-05-10T03:16:36;101423.52;;;8.57;49.34
79376;BME280;68846;53.150;18.136;2023-05-10T03:19:14;101428.44;;;8.57;49.23
79376;BME280;68846;53.150;18.136;2023-05-10T03:21:47;101428.87;;;8.54;49.17
79376;BME280;68846;53.150;18.136;2023-05-10T03:24:15;101421.05;;;8.51;48.98
79376;BME280;68846;53.150;18.136;2023-05-10T03:26:44;101423.15;;;8.51;49.12
79376;BME280;68846;53.150;18.136;2023-05-10T03:29:14;101419.62;;;8.50;49.18
79376;BME280;68846;53.150;18.136;2023-05-10T03:31:41;101421.91;;;8.50;49.28
79376;BME280;68846;53.150;18.136;2023-05-10T03:34:08;101422.95;;;8.50;49.04
79376;BME280;68846;53.150;18.136;2023-05-10T03:36:35;101426.25;;;8.49;49.17
79376;BME280;68846;53.150;18.136;2023-05-10T03:39:02;101421.16;;;8.49;49.26
79376;BME280;68846;53.150;18.136;2023-05-10T03:41:29;101421.21;;;8.51;48.98
79376;BME280;68846;53.150;18.136;2023-05-10T03:43:55;101421.08;;;8.52;49.30
79376;BME280;68846;53.150;18.136;2023-05-10T03:46:21;101422.84;;;8.52;49.37
79376;BME280;68846;53.150;18.136;2023-05-10T03:48:47;101421.52;;;8.55;49.55
79376;BME280;68846;53.150;18.136;2023-05-10T03:51:14;101420.30;;;8.55;49.57
79376;BME280;68846;53.150;18.136;2023-05-10T03:53:40;101420.11;;;8.55;49.28
79376;BME280;68846;53.150;18.136;2023-05-10T03:56:06;101419.11;;;8.56;49.46
79376;BME280;68846;53.150;18.136;2023-05-10T03:58:32;101418.34;;;8.60;49.22
79376;BME280;68846;53.150;18.136;2023-05-10T04:00:58;101402.06;;;8.56;49.39
79376;BME280;68846;53.150;18.136;2023-05-10T04:03:25;101415.16;;;8.65;49.35
79376;BME280;68846;53.150;18.136;2023-05-10T04:06:00;101414.17;;;8.67;49.53
79376;BME280;68846;53.150;18.136;2023-05-10T04:08:27;101407.28;;;8.65;49.44
79376;BME280;68846;53.150;18.136;2023-05-10T04:10:54;101414.15;;;8.78;49.35
79376;BME280;68846;53.150;18.136;2023-05-10T04:13:20;101415.27;;;8.81;49.56
79376;BME280;68846;53.150;18.136;2023-05-10T04:15:46;101405.54;;;8.77;49.06
79376;BME280;68846;53.150;18.136;2023-05-10T04:18:12;101416.46;;;8.85;49.09
79376;BME280;68846;53.150;18.136;2023-05-10T04:20:39;101409.14;;;8.87;48.74
79376;BME280;68846;53.150;18.136;2023-05-10T04:23:05;101411.52;;;8.90;49.35
79376;BME280;68846;53.150;18.136;2023-05-10T04:25:34;101412.47;;;8.93;49.46
79376;BME280;68846;53.150;18.136;2023-05-10T04:28:00;101414.88;;;8.97;49.19
79376;BME280;68846;53.150;18.136;2023-05-10T04:30:26;101410.75;;;9.00;48.93
79376;BME280;68846;53.150;18.136;2023-05-10T04:32:54;101407.48;;;9.02;49.09
79376;BME280;68846;53.150;18.136;2023-05-10T04:35:20;101406.73;;;9.06;49.32
79376;BME280;68846;53.150;18.136;2023-05-10T04:37:47;101392.75;;;9.03;49.30
79376;BME280;68846;53.150;18.136;2023-05-10T04:40:14;101403.38;;;9.13;48.60
79376;BME280;68846;53.150;18.136;2023-05-10T04:42:40;101404.00;;;9.16;48.89
79376;BME280;68846;53.150;18.136;2023-05-10T04:45:09;101408.89;;;9.21;49.04
79376;BME280;68846;53.150;18.136;2023-05-10T04:47:36;101402.86;;;9.25;49.08
79376;BME280;68846;53.150;18.136;2023-05-10T04:50:03;101402.86;;;9.31;49.30
79376;BME280;68846;53.150;18.136;2023-05-10T04:52:30;101404.02;;;9.35;49.38
79376;BME280;68846;53.150;18.136;2023-05-10T04:54:56;101404.14;;;9.40;49.11
79376;BME280;68846;53.150;18.136;2023-05-10T04:57:22;101408.80;;;9.43;49.03
79376;BME280;68846;53.150;18.136;2023-05-10T04:59:48;101409.41;;;9.47;49.10
79376;BME280;68846;53.150;18.136;2023-05-10T05:02:14;101405.51;;;9.51;48.65
79376;BME280;68846;53.150;18.136;2023-05-10T05:04:40;101409.52;;;9.56;49.19
79376;BME280;68846;53.150;18.136;2023-05-10T05:07:07;101395.77;;;9.55;48.88
79376;BME280;68846;53.150;18.136;2023-05-10T05:09:33;101402.75;;;9.67;48.89
79376;BME280;68846;53.150;18.136;2023-05-10T05:12:00;101407.23;;;9.71;48.62
79376;BME280;68846;53.150;18.136;2023-05-10T05:14:26;101402.61;;;9.75;48.91
79376;BME280;68846;53.150;18.136;2023-05-10T05:16:52;101401.70;;;9.81;48.68
79376;BME280;68846;53.150;18.136;2023-05-10T05:19:18;101401.02;;;9.89;48.89
79376;BME280;68846;53.150;18.136;2023-05-10T05:21:45;101402.56;;;9.95;48.37
79376;BME280;68846;53.150;18.136;2023-05-10T05:24:11;101403.95;;;10.01;48.60
79376;BME280;68846;53.150;18.136;2023-05-10T05:26:38;101406.05;;;10.07;48.20
79376;BME280;68846;53.150;18.136;2023-05-10T05:29:04;101400.56;;;10.13;48.39
79376;BME280;68846;53.150;18.136;2023-05-10T05:31:30;101394.58;;;10.20;48.31
79376;BME280;68846;53.150;18.136;2023-05-10T05:33:57;101388.27;;;10.27;48.03
79376;BME280;68846;53.150;18.136;2023-05-10T05:36:23;101389.48;;;10.34;48.02
79376;BME280;68846;53.150;18.136;2023-05-10T05:38:49;101389.45;;;10.41;47.59
79376;BME280;68846;53.150;18.136;2023-05-10T05:41:16;101370.70;;;10.37;47.69
79376;BME280;68846;53.150;18.136;2023-05-10T05:43:42;101389.61;;;10.56;47.63
79376;BME280;68846;53.150;18.136;2023-05-10T05:46:08;101366.80;;;10.52;47.17
79376;BME280;68846;53.150;18.136;2023-05-10T05:48:35;101383.64;;;10.73;47.54
79376;BME280;68846;53.150;18.136;2023-05-10T05:51:01;101383.46;;;10.81;47.37
79376;BME280;68846;53.150;18.136;2023-05-10T05:53:27;101385.97;;;10.91;47.41
79376;BME280;68846;53.150;18.136;2023-05-10T05:55:55;101386.00;;;11.01;47.12
79376;BME280;68846;53.150;18.136;2023-05-10T05:58:22;101385.48;;;11.11;46.51
79376;BME280;68846;53.150;18.136;2023-05-10T06:00:48;101386.95;;;11.22;46.34
79376;BME280;68846;53.150;18.136;2023-05-10T06:03:14;101388.70;;;11.31;46.31
79376;BME280;68846;53.150;18.136;2023-05-10T06:05:41;101375.53;;;11.34;46.07
79376;BME280;68846;53.150;18.136;2023-05-10T06:08:07;101384.83;;;11.50;46.38
79376;BME280;68846;53.150;18.136;2023-05-10T06:10:33;101386.42;;;11.61;45.70
79376;BME280;68846;53.150;18.136;2023-05-10T06:13:00;101387.50;;;11.72;45.89
79376;BME280;68846;53.150;18.136;2023-05-10T06:15:27;101387.21;;;11.84;45.75
79376;BME280;68846;53.150;18.136;2023-05-10T06:17:53;101387.40;;;11.95;44.51
79376;BME280;68846;53.150;18.136;2023-05-10T06:20:19;101392.66;;;12.04;44.38
79376;BME280;68846;53.150;18.136;2023-05-10T06:22:45;101391.73;;;12.12;45.07
79376;BME280;68846;53.150;18.136;2023-05-10T06:25:12;101391.17;;;12.21;43.32
79376;BME280;68846;53.150;18.136;2023-05-10T06:27:38;101384.41;;;12.29;44.01
79376;BME280;68846;53.150;18.136;2023-05-10T06:30:05;101386.67;;;12.39;44.05
79376;BME280;68846;53.150;18.136;2023-05-10T06:32:31;101389.68;;;12.52;43.29
79376;BME280;68846;53.150;18.136;2023-05-10T06:34:57;101379.21;;;12.61;42.80
79376;BME280;68846;53.150;18.136;2023-05-10T06:37:24;101380.75;;;12.71;42.30
79376;BME280;68846;53.150;18.136;2023-05-10T06:39:50;101385.14;;;12.81;41.56
79376;BME280;68846;53.150;18.136;2023-05-10T06:42:16;101376.95;;;12.90;41.26
79376;BME280;68846;53.150;18.136;2023-05-10T06:44:46;101382.52;;;12.99;42.29
79376;BME280;68846;53.150;18.136;2023-05-10T06:47:12;101381.42;;;13.10;41.15
79376;BME280;68846;53.150;18.136;2023-05-10T06:49:39;101379.97;;;13.20;40.67
79376;BME280;68846;53.150;18.136;2023-05-10T06:52:06;101380.08;;;13.30;41.14
79376;BME280;68846;53.150;18.136;2023-05-10T06:54:32;101370.27;;;13.38;40.30
79376;BME280;68846;53.150;18.136;2023-05-10T06:56:59;101376.20;;;13.48;40.53
79376;BME280;68846;53.150;18.136;2023-05-10T06:59:26;101372.40;;;13.57;41.17
79376;BME280;68846;53.150;18.136;2023-05-10T07:01:52;101378.52;;;13.67;41.00
79376;BME280;68846;53.150;18.136;2023-05-10T07:04:19;101375.93;;;13.76;40.60
79376;BME280;68846;53.150;18.136;2023-05-10T07:06:46;101376.01;;;13.84;40.35
79376;BME280;68846;53.150;18.136;2023-05-10T07:09:12;101369.73;;;13.94;39.90
79376;BME280;68846;53.150;18.136;2023-05-10T07:11:39;101369.98;;;14.04;38.33
79376;BME280;68846;53.150;18.136;2023-05-10T07:14:05;101370.92;;;14.12;39.01
79376;BME280;68846;53.150;18.136;2023-05-10T07:16:32;101363.37;;;14.21;38.75
79376;BME280;68846;53.150;18.136;2023-05-10T07:18:59;101366.08;;;14.30;38.30
79376;BME280;68846;53.150;18.136;2023-05-10T07:21:26;101369.32;;;14.37;38.93
79376;BME280;68846;53.150;18.136;2023-05-10T07:23:55;101369.73;;;14.46;38.94
79376;BME280;68846;53.150;18.136;2023-05-10T07:26:21;101361.65;;;14.54;37.90
79376;BME280;68846;53.150;18.136;2023-05-10T07:28:48;101361.69;;;14.60;38.61
79376;BME280;68846;53.150;18.136;2023-05-10T07:31:15;101361.91;;;14.68;38.39
79376;BME280;68846;53.150;18.136;2023-05-10T07:33:42;101361.23;;;14.78;38.79
79376;BME280;68846;53.150;18.136;2023-05-10T07:36:08;101358.96;;;14.86;38.65
79376;BME280;68846;53.150;18.136;2023-05-10T07:38:35;101359.70;;;14.91;38.02
79376;BME280;68846;53.150;18.136;2023-05-10T07:41:02;101357.61;;;14.99;37.55
79376;BME280;68846;53.150;18.136;2023-05-10T07:43:29;101360.47;;;15.08;37.81
79376;BME280;68846;53.150;18.136;2023-05-10T07:45:55;101357.30;;;15.14;37.19
79376;BME280;68846;53.150;18.136;2023-05-10T07:48:23;101361.39;;;15.18;36.38
79376;BME280;68846;53.150;18.136;2023-05-10T07:50:50;101353.05;;;15.19;36.34
79376;BME280;68846;53.150;18.136;2023-05-10T07:53:16;101353.05;;;15.22;36.11
79376;BME280;68846;53.150;18.136;2023-05-10T07:55:44;101361.25;;;15.36;35.31
79376;BME280;68846;53.150;18.136;2023-05-10T07:58:15;101362.13;;;15.39;35.45
79376;BME280;68846;53.150;18.136;2023-05-10T08:00:41;101346.34;;;15.36;34.52
79376;BME280;68846;53.150;18.136;2023-05-10T08:03:07;101352.02;;;15.38;34.37
79376;BME280;68846;53.150;18.136;2023-05-10T08:05:33;101356.12;;;15.46;34.80
79376;BME280;68846;53.150;18.136;2023-05-10T08:08:00;101360.56;;;15.50;33.77
79376;BME280;68846;53.150;18.136;2023-05-10T08:10:27;101357.20;;;15.54;33.50
79376;BME280;68846;53.150;18.136;2023-05-10T08:12:53;101342.28;;;15.49;33.62
79376;BME280;68846;53.150;18.136;2023-05-10T08:15:19;101354.41;;;15.66;33.88
79376;BME280;68846;53.150;18.136;2023-05-10T08:17:45;101346.94;;;15.68;33.72
79376;BME280;68846;53.150;18.136;2023-05-10T08:20:12;101353.34;;;15.77;33.86
79376;BME280;68846;53.150;18.136;2023-05-10T08:22:42;101348.55;;;15.83;33.66
79376;BME280;68846;53.150;18.136;2023-05-10T08:25:08;101347.46;;;15.88;33.39
79376;BME280;68846;53.150;18.136;2023-05-10T08:27:34;101349.25;;;15.94;33.86
79376;BME280;68846;53.150;18.136;2023-05-10T08:30:01;101348.89;;;16.01;33.63
79376;BME280;68846;53.150;18.136;2023-05-10T08:32:27;101345.52;;;16.09;33.36
79376;BME280;68846;53.150;18.136;2023-05-10T08:34:53;101352.26;;;16.14;33.24
79376;BME280;68846;53.150;18.136;2023-05-10T08:37:19;101350.83;;;16.21;33.00
79376;BME280;68846;53.150;18.136;2023-05-10T08:39:46;101346.55;;;16.27;32.93
79376;BME280;68846;53.150;18.136;2023-05-10T08:42:16;101343.34;;;16.33;32.79
79376;BME280;68846;53.150;18.136;2023-05-10T08:44:48;101338.52;;;16.36;32.76
79376;BME280;68846;53.150;18.136;2023-05-10T08:47:16;101348.63;;;16.48;32.37
79376;BME280;68846;53.150;18.136;2023-05-10T08:49:47;101345.77;;;16.54;32.17
79376;BME280;68846;53.150;18.136;2023-05-10T08:52:16;101342.00;;;16.64;32.67
79376;BME280;68846;53.150;18.136;2023-05-10T08:54:44;101338.63;;;16.65;31.16
79376;BME280;68846;53.150;18.136;2023-05-10T08:57:10;101348.21;;;16.76;31.11
79376;BME280;68846;53.150;18.136;2023-05-10T08:59:36;101348.90;;;16.82;31.31
79376;BME280;68846;53.150;18.136;2023-05-10T09:02:06;101347.64;;;16.87;30.07
79376;BME280;68846;53.150;18.136;2023-05-10T09:04:33;101348.14;;;16.90;31.03
79376;BME280;68846;53.150;18.136;2023-05-10T09:06:59;101347.61;;;16.93;31.41
79376;BME280;68846;53.150;18.136;2023-05-10T09:09:25;101344.91;;;16.98;31.39
79376;BME280;68846;53.150;18.136;2023-05-10T09:11:53;101346.27;;;17.11;31.81
79376;BME280;68846;53.150;18.136;2023-05-10T09:14:20;101344.42;;;17.22;31.05
79376;BME280;68846;53.150;18.136;2023-05-10T09:16:46;101343.64;;;17.32;30.74
79376;BME280;68846;53.150;18.136;2023-05-10T09:19:13;101344.84;;;17.42;30.68
79376;BME280;68846;53.150;18.136;2023-05-10T09:21:39;101341.60;;;17.47;30.71
79376;BME280;68846;53.150;18.136;2023-05-10T09:24:07;101336.08;;;17.47;30.27
79376;BME280;68846;53.150;18.136;2023-05-10T09:26:35;101341.71;;;17.55;30.58
79376;BME280;68846;53.150;18.136;2023-05-10T09:29:03;101336.34;;;17.59;30.76
79376;BME280;68846;53.150;18.136;2023-05-10T09:31:51;101324.91;;;17.64;30.38
79376;BME280;68846;53.150;18.136;2023-05-10T09:34:19;101333.71;;;17.81;29.82
79376;BME280;68846;53.150;18.136;2023-05-10T09:36:56;101333.27;;;17.88;29.76
79376;BME280;68846;53.150;18.136;2023-05-10T09:39:38;101332.32;;;17.96;30.30
79376;BME280;68846;53.150;18.136;2023-05-10T09:42:08;101332.36;;;18.09;30.44
79376;BME280;68846;53.150;18.136;2023-05-10T09:44:35;101317.55;;;18.12;29.48
79376;BME280;68846;53.150;18.136;2023-05-10T09:47:02;101328.79;;;18.29;29.01
79376;BME280;68846;53.150;18.136;2023-05-10T09:49:28;101324.63;;;18.35;29.58
79376;BME280;68846;53.150;18.136;2023-05-10T09:52:01;101329.48;;;18.48;29.42
79376;BME280;68846;53.150;18.136;2023-05-10T09:54:29;101322.06;;;18.56;28.64
79376;BME280;68846;53.150;18.136;2023-05-10T09:56:56;101324.46;;;18.64;29.76
79376;BME280;68846;53.150;18.136;2023-05-10T09:59:25;101325.18;;;18.81;30.02
79376;BME280;68846;53.150;18.136;2023-05-10T10:01:55;101321.46;;;18.92;29.52
79376;BME280;68846;53.150;18.136;2023-05-10T10:04:22;101320.07;;;19.03;29.04
79376;BME280;68846;53.150;18.136;2023-05-10T10:06:59;101318.45;;;19.16;29.55
79376;BME280;68846;53.150;18.136;2023-05-10T10:09:26;101313.92;;;19.32;28.64
79376;BME280;68846;53.150;18.136;2023-05-10T10:11:53;101311.58;;;19.45;28.69
79376;BME280;68846;53.150;18.136;2023-05-10T10:14:20;101304.20;;;19.61;29.51
79376;BME280;68846;53.150;18.136;2023-05-10T10:16:47;101308.89;;;19.81;28.59
79376;BME280;68846;53.150;18.136;2023-05-10T10:19:15;101307.28;;;19.90;28.25
79376;BME280;68846;53.150;18.136;2023-05-10T10:21:41;101300.31;;;19.91;27.65
79376;BME280;68846;53.150;18.136;2023-05-10T10:24:07;101300.45;;;19.93;28.21
79376;BME280;68846;53.150;18.136;2023-05-10T10:26:35;101294.49;;;20.06;27.94
79376;BME280;68846;53.150;18.136;2023-05-10T10:29:27;101291.27;;;20.15;26.86
79376;BME280;68846;53.150;18.136;2023-05-10T10:34:29;101297.20;;;20.33;27.17
79376;BME280;68846;53.150;18.136;2023-05-10T10:36:57;101286.56;;;20.38;27.39
79376;BME280;68846;53.150;18.136;2023-05-10T10:39:24;101291.54;;;20.49;26.88
79376;BME280;68846;53.150;18.136;2023-05-10T10:41:56;101289.00;;;20.50;26.95
79376;BME280;68846;53.150;18.136;2023-05-10T10:44:23;101301.05;;;20.65;27.41
79376;BME280;68846;53.150;18.136;2023-05-10T10:52:25;101290.62;;;21.00;26.58
79376;BME280;68846;53.150;18.136;2023-05-10T10:55:01;101285.08;;;21.07;26.45
79376;BME280;68846;53.150;18.136;2023-05-10T10:57:32;101279.05;;;21.20;27.23
79376;BME280;68846;53.150;18.136;2023-05-10T11:00:21;101281.48;;;21.31;26.85
79376;BME280;68846;53.150;18.136;2023-05-10T11:05:39;101284.63;;;21.43;25.45
79376;BME280;68846;53.150;18.136;2023-05-10T11:13:33;101277.42;;;21.59;25.80
79376;BME280;68846;53.150;18.136;2023-05-10T11:16:29;101280.52;;;21.64;26.49
79376;BME280;68846;53.150;18.136;2023-05-10T11:19:10;101280.54;;;21.77;26.33
79376;BME280;68846;53.150;18.136;2023-05-10T11:24:21;101272.77;;;21.86;26.06
79376;BME280;68846;53.150;18.136;2023-05-10T11:26:51;101272.55;;;21.94;25.37
79376;BME280;68846;53.150;18.136;2023-05-10T11:29:18;101271.23;;;21.97;25.39
79376;BME280;68846;53.150;18.136;2023-05-10T11:31:45;101274.14;;;22.02;25.26
79376;BME280;68846;53.150;18.136;2023-05-10T11:34:32;101265.91;;;22.01;24.49
79376;BME280;68846;53.150;18.136;2023-05-10T11:36:59;101258.70;;;21.89;23.87
79376;BME280;68846;53.150;18.136;2023-05-10T11:39:30;101260.06;;;21.85;24.11
79376;BME280;68846;53.150;18.136;2023-05-10T11:41:58;101256.17;;;21.89;24.58
79376;BME280;68846;53.150;18.136;2023-05-10T11:44:32;101258.30;;;22.04;25.23
79376;BME280;68846;53.150;18.136;2023-05-10T11:46:59;101268.14;;;22.19;25.29
79376;BME280;68846;53.150;18.136;2023-05-10T11:49:26;101272.80;;;22.32;24.35
79376;BME280;68846;53.150;18.136;2023-05-10T11:51:52;101262.63;;;22.42;24.72
79376;BME280;68846;53.150;18.136;2023-05-10T11:54:19;101254.74;;;22.54;24.16
79376;BME280;68846;53.150;18.136;2023-05-10T11:56:45;101256.00;;;22.66;23.99
79376;BME280;68846;53.150;18.136;2023-05-10T11:59:14;101259.95;;;22.72;23.64
79376;BME280;68846;53.150;18.136;2023-05-10T12:01:41;101257.34;;;22.76;23.89
79376;BME280;68846;53.150;18.136;2023-05-10T12:04:07;101252.45;;;22.83;23.96
79376;BME280;68846;53.150;18.136;2023-05-10T12:06:37;101252.37;;;22.86;22.76
79376;BME280;68846;53.150;18.136;2023-05-10T12:09:07;101251.95;;;22.88;22.71
79376;BME280;68846;53.150;18.136;2023-05-10T12:11:40;101253.34;;;23.01;22.87
79376;BME280;68846;53.150;18.136;2023-05-10T12:14:07;101255.30;;;23.07;22.77
79376;BME280;68846;53.150;18.136;2023-05-10T12:16:34;101255.05;;;23.04;22.16
79376;BME280;68846;53.150;18.136;2023-05-10T12:19:00;101254.83;;;23.00;22.22
79376;BME280;68846;53.150;18.136;2023-05-10T12:21:28;101248.33;;;23.07;22.38
79376;BME280;68846;53.150;18.136;2023-05-10T12:24:02;101243.68;;;23.16;22.11
79376;BME280;68846;53.150;18.136;2023-05-10T12:26:29;101246.86;;;23.30;22.50
79376;BME280;68846;53.150;18.136;2023-05-10T12:29:00;101250.94;;;23.48;23.19
79376;BME280;68846;53.150;18.136;2023-05-10T12:31:57;101253.84;;;23.68;22.48
79376;BME280;68846;53.150;18.136;2023-05-10T12:34:30;101253.10;;;23.85;21.60
79376;BME280;68846;53.150;18.136;2023-05-10T12:36:57;101252.80;;;23.94;21.23
79376;BME280;68846;53.150;18.136;2023-05-10T12:39:23;101243.31;;;23.92;20.91
79376;BME280;68846;53.150;18.136;2023-05-10T12:41:51;101252.05;;;23.94;21.51
79376;BME280;68846;53.150;18.136;2023-05-10T12:44:18;101244.91;;;24.02;21.52
79376;BME280;68846;53.150;18.136;2023-05-10T12:46:44;101245.36;;;24.05;21.55
79376;BME280;68846;53.150;18.136;2023-05-10T12:49:10;101255.11;;;24.14;20.75
79376;BME280;68846;53.150;18.136;2023-05-10T12:51:37;101250.98;;;24.13;20.59
79376;BME280;68846;53.150;18.136;2023-05-10T12:54:03;101247.21;;;24.04;19.98
79376;BME280;68846;53.150;18.136;2023-05-10T12:56:29;101252.02;;;23.99;20.15
79376;BME280;68846;53.150;18.136;2023-05-10T12:58:58;101240.05;;;23.87;20.45
79376;BME280;68846;53.150;18.136;2023-05-10T13:01:25;101241.48;;;23.93;20.76
79376;BME280;68846;53.150;18.136;2023-05-10T13:03:51;101241.98;;;23.99;20.60
79376;BME280;68846;53.150;18.136;2023-05-10T13:06:18;101242.37;;;24.02;20.04
79376;BME280;68846;53.150;18.136;2023-05-10T13:08:45;101241.77;;;23.95;19.72
79376;BME280;68846;53.150;18.136;2023-05-10T13:11:11;101241.63;;;23.79;20.17
79376;BME280;68846;53.150;18.136;2023-05-10T13:13:42;101240.52;;;23.74;20.28
79376;BME280;68846;53.150;18.136;2023-05-10T13:16:08;101237.08;;;23.69;20.26
79376;BME280;68846;53.150;18.136;2023-05-10T13:18:34;101236.34;;;23.65;20.65
79376;BME280;68846;53.150;18.136;2023-05-10T13:21:01;101233.38;;;23.72;21.23